Time;durP1;ratioP1;P1;durP2;ratioP2;P2;SDS_P1;SDS_P2;PMS_P1;PMS_P2;Temp;Humidity;BMP_temperature;BMP_pressure;BME280_temperature;BME280_humidity;BME280_pressure;Samples;Min_cycle;Max_cycle;Signal;HPM_P1;HPM_P2
2021/12/29 00:02:14;;;;;;;17.70;15.87;;;;;;;4.26;89.26;92124.00;5062887;28;20222;-76
2021/12/29 00:04:41;;;;;;;22.97;18.37;;;;;;;3.88;89.18;92083.00;5069030;28;20257;-76
2021/12/29 00:07:07;;;;;;;20.43;18.27;;;;;;;4.15;89.90;92137.91;5068984;28;20240;-76
2021/12/29 00:09:36;;;;;;;22.67;19.67;;;;;;;4.10;91.03;92141.25;5068857;28;20182;-76
2021/12/29 00:12:02;;;;;;;18.00;16.30;;;;;;;4.23;89.76;92145.97;5068128;28;20228;-76
2021/12/29 00:14:27;;;;;;;18.53;16.73;;;;;;;4.09;89.94;92119.03;5055159;28;20245;-76
2021/12/29 00:16:56;;;;;;;19.70;17.40;;;;;;;3.81;92.35;92127.13;5054732;28;20293;-76
2021/12/29 00:19:21;;;;;;;17.67;15.83;;;;;;;3.91;93.02;92132.34;5065155;28;20186;-76
2021/12/29 00:21:47;;;;;;;17.37;15.53;;;;;;;4.24;91.30;92138.97;5064113;28;20229;-76
2021/12/29 00:24:12;;;;;;;23.93;17.60;;;;;;;4.10;90.40;92099.13;5063621;28;21027;-76
2021/12/29 00:26:38;;;;;;;22.47;17.97;;;;;;;4.12;92.27;92131.44;5059750;28;20256;-76
2021/12/29 00:29:03;;;;;;;21.00;16.77;;;;;;;4.30;90.83;92100.00;5066137;28;20196;-76
2021/12/29 00:31:31;;;;;;;18.87;17.07;;;;;;;4.50;90.49;92115.56;5067142;28;20256;-76
2021/12/29 00:33:57;;;;;;;20.60;16.53;;;;;;;4.47;89.78;92110.13;5057590;28;20287;-76
2021/12/29 00:36:22;;;;;;;18.33;16.23;;;;;;;4.06;92.29;92119.50;5063804;28;20236;-76
2021/12/29 00:38:48;;;;;;;19.13;16.57;;;;;;;3.97;93.07;92115.09;5067799;28;20189;-76
2021/12/29 00:41:14;;;;;;;17.60;15.93;;;;;;;4.02;92.38;92102.97;5066131;28;20236;-76
2021/12/29 00:43:40;;;;;;;17.83;16.13;;;;;;;4.45;90.51;92120.72;5068769;28;20246;-76
2021/12/29 00:46:11;;;;;;;16.77;15.13;;;;;;;4.53;90.09;92128.00;5052991;28;20245;-76
2021/12/29 00:48:39;;;;;;;16.87;15.27;;;;;;;4.64;88.72;92121.81;5069047;28;20249;-76
2021/12/29 00:51:05;;;;;;;16.53;15.23;;;;;;;4.23;90.43;92099.47;5068333;28;20239;-76
2021/12/29 00:53:31;;;;;;;15.57;14.30;;;;;;;4.46;89.82;92127.47;5064464;28;20255;-76
2021/12/29 00:55:56;;;;;;;15.33;14.03;;;;;;;4.48;90.38;92132.38;5066154;28;20233;-77
2021/12/29 00:58:22;;;;;;;16.40;15.10;;;;;;;4.45;90.49;92128.47;5065044;28;20178;-76
2021/12/29 01:00:47;;;;;;;17.10;15.60;;;;;;;4.44;90.15;92111.41;5052002;28;20232;-77
2021/12/29 01:03:13;;;;;;;15.23;13.77;;;;;;;4.42;90.19;92128.22;5069539;28;20186;-76
2021/12/29 01:05:40;;;;;;;15.53;14.17;;;;;;;3.82;92.33;92084.78;5053611;28;20222;-76
2021/12/29 01:08:06;;;;;;;14.60;13.27;;;;;;;4.20;93.11;92125.78;5067215;28;20194;-76
2021/12/29 01:10:32;;;;;;;14.67;13.43;;;;;;;4.27;91.03;92121.16;5061730;28;20230;-76
2021/12/29 01:13:00;;;;;;;12.87;11.93;;;;;;;4.10;92.47;92101.72;5058559;28;20178;-77
2021/12/29 01:15:56;;;;;;;13.30;12.20;;;;;;;4.55;90.59;92118.19;5068009;28;20193;-77
2021/12/29 01:18:21;;;;;;;14.53;13.30;;;;;;;4.92;88.13;92126.53;5059727;28;20173;-76
2021/12/29 01:20:47;;;;;;;14.97;13.60;;;;;;;4.61;89.13;92122.31;5070078;28;20236;-77
2021/12/29 01:23:12;;;;;;;16.30;14.63;;;;;;;4.60;90.24;92110.44;5055528;28;20217;-77
2021/12/29 01:25:37;;;;;;;19.23;16.90;;;;;;;4.69;90.71;92103.75;5063355;28;20231;-76
2021/12/29 01:28:03;;;;;;;20.77;16.90;;;;;;;4.78;89.72;92107.38;5070570;28;20241;-76
2021/12/29 01:30:29;;;;;;;17.53;15.67;;;;;;;4.69;90.37;92103.75;5055571;28;20222;-76
2021/12/29 01:32:54;;;;;;;18.30;16.37;;;;;;;4.89;89.92;92083.09;5056162;28;20185;-76
2021/12/29 01:35:20;;;;;;;20.50;18.53;;;;;;;5.09;88.67;92086.75;5064612;28;20283;-76
2021/12/29 01:37:45;;;;;;;18.97;16.83;;;;;;;5.04;88.30;92086.72;5055069;28;20237;-76
2021/12/29 01:40:15;;;;;;;16.73;15.03;;;;;;;5.16;88.01;92092.44;5065225;28;20207;-76
2021/12/29 01:42:41;;;;;;;16.53;15.13;;;;;;;5.16;87.43;92087.25;5071786;28;20269;-76
2021/12/29 01:45:08;;;;;;;15.73;14.20;;;;;;;4.87;88.91;92064.47;5058289;28;20268;-77
2021/12/29 01:47:33;;;;;;;16.73;15.30;;;;;;;4.94;87.89;92070.19;5066390;28;20243;-76
2021/12/29 01:50:00;;;;;;;21.60;16.83;;;;;;;5.04;88.39;92087.53;5070989;28;20227;-76
2021/12/29 01:52:33;;;;;;;17.77;15.93;;;;;;;4.61;88.90;92020.75;5067647;28;20226;-76
2021/12/29 01:54:58;;;;;;;46.83;27.97;;;;;;;5.04;88.30;92063.44;5063483;28;20185;-76
2021/12/29 01:57:24;;;;;;;50.73;29.27;;;;;;;4.54;91.13;92062.38;5055564;28;20247;-77
2021/12/29 01:59:49;;;;;;;28.20;22.37;;;;;;;4.78;90.35;92050.50;5067018;28;20194;-76
2021/12/29 02:02:15;;;;;;;16.03;14.53;;;;;;;4.88;89.15;92040.19;5070782;28;20226;-76
2021/12/29 02:04:43;;;;;;;17.17;15.67;;;;;;;5.05;87.90;92059.81;5065827;28;20209;-77
2021/12/29 02:07:08;;;;;;;15.23;13.87;;;;;;;5.13;88.47;92056.72;5070929;28;20316;-76
2021/12/29 02:09:35;;;;;;;21.33;16.93;;;;;;;4.81;89.34;92011.19;5065715;28;20182;-76
2021/12/29 02:12:01;;;;;;;20.57;17.37;;;;;;;4.89;90.68;92046.88;5068038;28;20231;-76
2021/12/29 02:14:27;;;;;;;29.80;21.63;;;;;;;4.98;91.03;92039.38;5067636;28;20244;-76
2021/12/29 02:16:52;;;;;;;29.47;21.00;;;;;;;4.69;91.99;92025.41;5063368;28;20214;-76
2021/12/29 02:19:18;;;;;;;26.83;19.97;;;;;;;5.05;91.74;92029.56;5068296;28;20189;-76
2021/12/29 02:21:53;;;;;;;22.17;18.87;;;;;;;5.05;91.24;92013.25;5070651;28;20256;-77
2021/12/29 02:24:23;;;;;;;20.37;18.27;;;;;;;5.38;89.47;92010.13;5065839;28;20220;-76
2021/12/29 02:26:48;;;;;;;22.37;18.77;;;;;;;5.36;89.23;92001.84;5063249;28;20285;-76
2021/12/29 02:29:16;;;;;;;21.37;18.90;;;;;;;5.41;89.44;91989.69;5059759;28;20208;-77
2021/12/29 02:31:44;;;;;;;20.50;18.33;;;;;;;5.53;88.48;91991.97;5066971;28;20225;-77
2021/12/29 02:34:11;;;;;;;17.63;15.87;;;;;;;5.11;90.13;92001.88;5071176;28;20253;-77
2021/12/29 02:36:43;;;;;;;17.97;16.20;;;;;;;4.87;91.49;91994.66;5065105;28;20232;-76
2021/12/29 02:39:14;;;;;;;17.33;15.33;;;;;;;5.15;90.51;91990.00;5043091;28;20193;-76
2021/12/29 02:41:51;;;;;;;18.07;16.47;;;;;;;5.37;89.48;92000.84;5067769;28;20233;-77
2021/12/29 02:44:24;;;;;;;17.70;15.97;;;;;;;5.03;90.12;91984.31;5067571;28;20189;-76
2021/12/29 02:46:49;;;;;;;18.80;16.97;;;;;;;5.06;90.71;91978.63;5063438;28;20241;-76
2021/12/29 02:49:15;;;;;;;18.47;16.73;;;;;;;5.06;90.29;91989.72;5064573;28;20186;-77
2021/12/29 02:51:41;;;;;;;19.43;17.43;;;;;;;5.11;91.90;92004.47;5066805;28;20247;-76
2021/12/29 02:54:06;;;;;;;18.67;16.73;;;;;;;5.21;90.18;91996.72;5069175;28;20249;-77
2021/12/29 02:56:32;;;;;;;20.03;17.80;;;;;;;5.28;90.78;92007.56;5053125;28;20293;-77
2021/12/29 02:58:58;;;;;;;21.10;18.90;;;;;;;5.34;89.67;91994.34;5037840;28;20201;-77
2021/12/29 03:01:24;;;;;;;18.47;16.57;;;;;;;5.32;88.37;91954.25;5068976;28;20742;-77
2021/12/29 03:03:50;;;;;;;21.43;17.17;;;;;;;5.60;87.97;91995.09;5070045;28;20181;-76
2021/12/29 03:06:15;;;;;;;20.50;18.03;;;;;;;5.24;89.86;92004.72;5069284;28;20251;-77
2021/12/29 03:08:42;;;;;;;20.23;18.10;;;;;;;5.36;90.80;92001.84;5067727;28;20196;-76
2021/12/29 03:11:08;;;;;;;20.73;18.50;;;;;;;5.30;89.05;91990.75;5068447;28;20297;-76
2021/12/29 03:13:37;;;;;;;20.23;18.23;;;;;;;4.87;91.13;91976.53;5070035;28;20185;-76
2021/12/29 03:16:03;;;;;;;19.13;17.10;;;;;;;5.30;90.94;92000.31;5068826;28;20251;-76
2021/12/29 03:18:29;;;;;;;18.47;16.70;;;;;;;5.53;88.64;92003.13;5041207;28;20777;-77
2021/12/29 03:20:55;;;;;;;17.57;15.97;;;;;;;5.32;89.62;92003.41;5068156;28;20293;-76
2021/12/29 03:23:21;;;;;;;18.83;16.93;;;;;;;4.95;91.57;91978.63;5050801;28;20225;-76
2021/12/29 03:25:51;;;;;;;17.50;15.90;;;;;;;5.13;91.71;92000.59;5068676;28;20229;-77
2021/12/29 03:28:19;;;;;;;18.23;16.37;;;;;;;5.22;90.65;92000.84;5050906;28;20194;-76
2021/12/29 03:30:48;;;;;;;18.90;17.10;;;;;;;4.89;92.10;91994.38;5066139;28;20292;-76
2021/12/29 03:33:14;;;;;;;19.20;17.20;;;;;;;5.15;92.19;91992.59;5057841;28;20182;-76
2021/12/29 03:35:45;;;;;;;19.50;17.40;;;;;;;4.93;91.92;91980.69;5068451;28;20243;-76
2021/12/29 03:38:15;;;;;;;18.63;16.83;;;;;;;5.07;91.03;91977.56;5058061;28;20216;-77
2021/12/29 03:40:41;;;;;;;19.33;17.27;;;;;;;5.18;90.29;91986.88;5060336;28;20264;-77
2021/12/29 03:43:09;;;;;;;19.30;17.00;;;;;;;4.98;91.45;91985.06;5054831;28;20205;-77
2021/12/29 03:45:37;;;;;;;20.10;18.00;;;;;;;4.78;92.88;91988.44;5049453;28;20229;-76
2021/12/29 03:48:06;;;;;;;19.23;17.33;;;;;;;5.18;90.81;91990.25;5070193;28;20185;-77
2021/12/29 03:50:32;;;;;;;20.07;17.47;;;;;;;4.81;91.79;91967.25;5061802;28;20235;-77
2021/12/29 03:52:58;;;;;;;17.97;16.17;;;;;;;5.23;91.21;91968.78;5053949;28;20185;-77
2021/12/29 03:55:24;;;;;;;18.10;16.40;;;;;;;5.39;89.43;91973.66;5060125;28;20252;-76
2021/12/29 03:57:49;;;;;;;18.23;16.57;;;;;;;4.95;90.70;91957.94;5059169;28;20182;-77
2021/12/29 04:00:16;;;;;;;16.50;14.77;;;;;;;4.72;92.78;91955.88;5058530;28;20217;-76
2021/12/29 04:02:43;;;;;;;16.57;15.00;;;;;;;4.61;93.83;91964.66;5066350;28;20185;-76
2021/12/29 04:05:11;;;;;;;21.60;18.03;;;;;;;4.57;94.99;91970.59;5067340;28;20217;-76
2021/12/29 04:07:37;;;;;;;18.20;16.30;;;;;;;4.76;94.10;91975.00;5069419;28;20253;-76
2021/12/29 04:10:05;;;;;;;16.47;14.97;;;;;;;5.06;93.14;91969.03;5055017;28;20189;-77
2021/12/29 04:12:31;;;;;;;18.07;16.27;;;;;;;5.40;89.76;91969.25;5067138;28;20257;-76
2021/12/29 04:14:57;;;;;;;20.30;17.00;;;;;;;5.30;90.04;91956.31;5069747;28;20320;-76
2021/12/29 04:17:29;;;;;;;21.50;17.50;;;;;;;5.48;88.83;91964.28;5057838;28;20238;-76
2021/12/29 04:22:39;;;;;;;16.67;15.10;;;;;;;5.36;89.56;91965.63;5054581;28;20239;-76
2021/12/29 04:25:05;;;;;;;17.67;15.93;;;;;;;5.16;90.51;91937.19;5054290;28;20205;-76
2021/12/29 04:27:30;;;;;;;17.53;15.93;;;;;;;5.55;88.65;91961.44;5068851;28;20233;-77
2021/12/29 04:29:56;;;;;;;16.80;15.07;;;;;;;5.33;89.60;91971.31;5034021;28;20170;-77
2021/12/29 04:32:21;;;;;;;14.93;13.57;;;;;;;5.46;89.54;91957.84;5057678;28;20225;-77
2021/12/29 04:34:47;;;;;;;16.50;15.00;;;;;;;5.12;91.18;91942.13;5065451;28;20207;-77
2021/12/29 04:37:12;;;;;;;16.60;14.90;;;;;;;5.25;89.61;91926.06;5060254;28;20244;-77
2021/12/29 04:39:38;;;;;;;18.43;16.50;;;;;;;4.94;91.69;91971.13;5068348;28;20193;-77
2021/12/29 04:42:04;;;;;;;20.53;18.53;;;;;;;4.91;92.65;91977.59;5070167;28;20225;-77
2021/12/29 04:44:29;;;;;;;18.30;16.20;;;;;;;5.25;90.82;91971.84;5072408;28;20187;-77
2021/12/29 04:46:57;;;;;;;15.60;14.20;;;;;;;5.33;88.94;91976.50;5069110;28;20225;-77
2021/12/29 04:49:26;;;;;;;15.93;14.50;;;;;;;5.20;89.45;91975.22;5062011;28;20193;-77
2021/12/29 04:52:02;;;;;;;15.47;14.27;;;;;;;4.76;91.71;91969.06;5073115;28;20746;-77
2021/12/29 04:54:31;;;;;;;14.53;13.37;;;;;;;5.04;92.13;91986.66;5044942;28;20261;-77
2021/12/29 04:56:57;;;;;;;14.87;13.50;;;;;;;4.93;90.31;91960.00;5044578;28;20256;-77
2021/12/29 04:59:24;;;;;;;15.50;14.20;;;;;;;4.57;93.58;91970.59;5073332;28;20200;-77
2021/12/29 05:01:49;;;;;;;14.63;13.37;;;;;;;5.03;92.48;91984.31;5070466;28;20217;-77
2021/12/29 05:04:21;;;;;;;14.90;13.47;;;;;;;5.37;89.35;91986.06;5072099;28;20193;-77
2021/12/29 05:09:31;;;;;;;16.73;15.33;;;;;;;5.04;90.84;91981.47;5063043;28;20203;-77
2021/12/29 05:11:59;;;;;;;15.67;14.27;;;;;;;4.64;92.47;91961.56;5069181;28;20233;-77
2021/12/29 05:14:24;;;;;;;17.80;16.00;;;;;;;5.33;91.01;91992.81;5071849;28;20217;-77
2021/12/29 05:16:50;;;;;;;18.20;16.30;;;;;;;5.22;90.05;91978.34;5046631;28;20257;-78
2021/12/29 05:19:15;;;;;;;18.40;15.90;;;;;;;5.25;90.08;91990.75;5042157;28;20198;-77
2021/12/29 05:21:42;;;;;;;18.23;16.33;;;;;;;4.90;92.53;91996.72;5072157;28;20258;-77
2021/12/29 05:24:08;;;;;;;17.10;15.60;;;;;;;5.02;92.90;91993.09;5072262;28;20194;-77
2021/12/29 05:26:35;;;;;;;14.97;13.80;;;;;;;5.26;91.02;91997.47;5072075;28;20864;-77
2021/12/29 05:29:01;;;;;;;14.77;13.57;;;;;;;5.60;88.85;91992.50;5057823;28;20182;-77
2021/12/29 05:31:27;;;;;;;13.83;12.57;;;;;;;5.76;88.06;91994.78;5064144;28;20232;-78
2021/12/29 05:33:52;;;;;;;13.60;12.40;;;;;;;5.22;90.80;91999.03;5071299;28;20212;-77
2021/12/29 05:36:18;;;;;;;16.93;15.47;;;;;;;5.63;89.44;92000.53;5065447;28;20221;-77
2021/12/29 05:38:43;;;;;;;18.53;16.80;;;;;;;5.92;87.60;91998.13;5071511;28;20182;-78
2021/12/29 05:41:09;;;;;;;17.63;15.97;;;;;;;5.87;88.05;91998.13;5061119;28;20245;-77
2021/12/29 05:43:34;;;;;;;20.53;18.33;;;;;;;5.69;88.31;91983.94;5058238;28;20198;-77
2021/12/29 05:46:00;;;;;;;20.47;16.30;;;;;;;5.35;90.22;91998.50;5061219;28;20292;-77
2021/12/29 05:48:25;;;;;;;19.20;17.40;;;;;;;5.15;91.53;91998.53;5062152;28;20241;-77
2021/12/29 05:50:51;;;;;;;19.33;17.33;;;;;;;5.10;92.50;91984.81;5061275;28;20226;-77
2021/12/29 05:53:17;;;;;;;22.63;17.27;;;;;;;5.64;89.78;91993.50;5066179;28;20190;-77
2021/12/29 05:55:42;;;;;;;23.00;18.87;;;;;;;5.13;90.96;91966.97;5055077;28;20256;-77
2021/12/29 05:58:09;;;;;;;27.70;21.73;;;;;;;5.31;91.83;92000.06;5071896;28;20178;-77
2021/12/29 06:00:37;;;;;;;28.27;22.10;;;;;;;5.40;91.51;92000.31;5069858;28;20237;-77
2021/12/29 06:03:03;;;;;;;23.80;19.97;;;;;;;5.62;90.51;91998.19;5070857;28;20248;-78
2021/12/29 06:05:29;;;;;;;24.97;20.33;;;;;;;5.48;90.62;91992.00;5039103;28;20232;-77
2021/12/29 06:07:54;;;;;;;25.47;19.93;;;;;;;5.31;91.90;91994.88;5059881;28;20194;-78
2021/12/29 06:10:20;;;;;;;21.83;18.53;;;;;;;5.22;93.01;92003.41;5057524;28;20178;-77
2021/12/29 06:12:45;;;;;;;23.47;18.70;;;;;;;5.10;93.95;92000.34;5062879;28;20174;-77
2021/12/29 06:15:12;;;;;;;20.30;17.43;;;;;;;5.13;94.18;92003.19;5054110;28;20275;-76
2021/12/29 06:17:38;;;;;;;21.90;18.30;;;;;;;5.35;94.40;92006.28;5066726;28;20170;-77
2021/12/29 06:20:06;;;;;;;19.57;17.50;;;;;;;5.80;90.71;92001.00;5070261;28;20189;-77
2021/12/29 06:22:31;;;;;;;27.47;22.00;;;;;;;5.93;89.43;92003.03;5067646;28;20225;-77
2021/12/29 06:24:57;;;;;;;22.83;19.37;;;;;;;5.42;91.44;92004.19;5061327;28;20678;-77
2021/12/29 06:27:23;;;;;;;25.70;20.20;;;;;;;5.34;93.34;92020.22;5057153;28;20317;-77
2021/12/29 06:29:49;;;;;;;27.80;19.37;;;;;;;5.74;92.32;92001.25;5069529;28;20245;-77
2021/12/29 06:32:16;;;;;;;21.43;19.33;;;;;;;5.88;90.46;92015.22;5069538;28;20304;-77
2021/12/29 06:34:41;;;;;;;22.00;18.40;;;;;;;6.10;90.03;92015.69;5059448;28;21763;-77
2021/12/29 06:37:12;;;;;;;25.30;21.77;;;;;;;6.27;89.02;92021.28;5059239;28;20236;-77
2021/12/29 06:39:39;;;;;;;29.20;23.97;;;;;;;5.91;89.81;92006.94;5069243;28;20200;-76
2021/12/29 06:42:05;;;;;;;29.37;24.93;;;;;;;5.89;90.44;91993.47;5067568;28;20216;-77
2021/12/29 06:44:30;;;;;;;32.60;25.97;;;;;;;5.84;90.93;92001.25;5067418;28;20246;-77
2021/12/29 06:46:56;;;;;;;34.10;25.63;;;;;;;5.38;94.40;92002.38;5069907;28;20786;-77
2021/12/29 06:49:22;;;;;;;28.63;21.83;;;;;;;5.51;94.51;92007.03;5067344;28;20185;-77
2021/12/29 06:51:49;;;;;;;30.47;25.17;;;;;;;5.80;92.76;92000.19;5070039;28;20260;-77
2021/12/29 06:54:14;;;;;;;31.50;24.27;;;;;;;6.20;90.50;92015.63;5060170;28;20194;-77
2021/12/29 06:56:39;;;;;;;28.00;24.37;;;;;;;6.10;90.95;92023.44;5069097;28;20221;-77
2021/12/29 06:59:05;;;;;;;31.00;23.67;;;;;;;6.20;90.29;92006.03;5059992;28;20257;-77
2021/12/29 07:01:31;;;;;;;33.57;24.30;;;;;;;6.20;89.18;91984.50;5058816;28;20225;-77
2021/12/29 07:03:57;;;;;;;27.93;23.33;;;;;;;6.36;89.67;92027.47;5067207;28;20225;-77
2021/12/29 07:06:22;;;;;;;28.20;23.77;;;;;;;6.36;88.99;92035.25;5065309;28;20226;-77
2021/12/29 07:08:47;;;;;;;30.07;24.83;;;;;;;5.93;91.25;92012.63;5068993;28;20189;-77
2021/12/29 07:11:13;;;;;;;29.77;23.23;;;;;;;6.30;91.39;92033.72;5069767;28;20249;-77
2021/12/29 07:13:38;;;;;;;33.97;25.83;;;;;;;6.29;90.16;92019.19;5069326;28;20193;-77
2021/12/29 07:16:04;;;;;;;31.73;25.30;;;;;;;6.16;90.91;92035.34;5042224;28;20236;-77
2021/12/29 07:18:29;;;;;;;30.93;23.97;;;;;;;6.14;91.83;92047.78;5064095;28;20250;-77
2021/12/29 07:20:55;;;;;;;31.37;24.83;;;;;;;6.35;90.64;92037.06;5055899;28;20248;-77
2021/12/29 07:23:20;;;;;;;30.97;25.73;;;;;;;6.57;89.03;92035.94;5062497;28;20244;-77
2021/12/29 07:25:46;;;;;;;36.33;26.47;;;;;;;6.60;89.40;92040.56;5055705;28;20468;-77
2021/12/29 07:28:11;;;;;;;35.63;26.17;;;;;;;6.78;88.45;92048.50;5067505;28;20215;-77
2021/12/29 07:30:37;;;;;;;31.57;25.67;;;;;;;6.36;89.38;92040.44;5059504;28;20356;-77
2021/12/29 07:33:02;;;;;;;34.77;26.47;;;;;;;6.18;91.26;92044.38;5068997;28;20181;-77
2021/12/29 07:35:28;;;;;;;42.63;27.13;;;;;;;6.11;92.59;92048.31;5054837;28;20260;-77
2021/12/29 07:37:53;;;;;;;35.77;26.53;;;;;;;5.90;94.03;92046.84;5053914;28;20182;-77
2021/12/29 07:40:19;;;;;;;38.73;30.00;;;;;;;5.81;95.29;92046.56;5067337;28;20193;-76
2021/12/29 07:42:45;;;;;;;37.37;28.30;;;;;;;5.97;95.22;92057.69;5066220;28;20178;-76
2021/12/29 07:45:11;;;;;;;37.57;28.07;;;;;;;5.93;95.56;92061.84;5067677;28;20213;-76
2021/12/29 07:47:46;;;;;;;37.37;27.73;;;;;;;6.17;95.35;92058.41;5068776;28;20226;-77
2021/12/29 07:50:14;;;;;;;36.40;26.93;;;;;;;6.63;92.84;92060.78;5069255;28;20201;-76
2021/12/29 07:52:39;;;;;;;41.90;29.20;;;;;;;6.63;91.26;92030.41;5064541;28;20221;-76
2021/12/29 07:55:05;;;;;;;46.13;29.33;;;;;;;6.93;90.40;92055.41;5064259;28;20195;-76
2021/12/29 07:57:31;;;;;;;42.70;29.30;;;;;;;7.02;89.96;92062.34;5053841;28;20268;-76
2021/12/29 07:59:56;;;;;;;43.87;29.00;;;;;;;6.85;90.21;92048.97;5053020;28;20216;-76
2021/12/29 08:02:27;;;;;;;41.17;29.47;;;;;;;6.99;90.30;92065.47;5064301;28;20214;-76
2021/12/29 08:04:54;;;;;;;37.83;28.80;;;;;;;6.70;90.79;92064.63;5054606;28;20224;-76
2021/12/29 08:07:20;;;;;;;47.90;31.47;;;;;;;6.35;93.30;92054.44;5065349;28;20221;-76
2021/12/29 08:09:46;;;;;;;44.67;30.90;;;;;;;6.07;95.56;92044.72;5059549;28;20193;-76
2021/12/29 08:12:12;;;;;;;48.40;32.43;;;;;;;5.99;96.33;92022.69;5054247;28;20226;-76
2021/12/29 08:14:37;;;;;;;47.77;32.43;;;;;;;5.96;97.48;92033.56;5066705;28;20229;-76
2021/12/29 08:17:03;;;;;;;47.50;32.30;;;;;;;5.89;96.65;91998.63;5059526;28;20259;-76
2021/12/29 08:19:29;;;;;;;46.23;33.00;;;;;;;6.69;95.05;92042.34;5055689;28;20210;-76
2021/12/29 08:21:54;;;;;;;50.47;34.20;;;;;;;6.45;95.34;92031.06;5039493;28;20226;-76
2021/12/29 08:24:19;;;;;;;51.57;36.47;;;;;;;7.02;92.97;92046.78;5059620;28;20257;-76
2021/12/29 08:26:45;;;;;;;52.43;36.23;;;;;;;7.26;91.23;92052.84;5057183;28;20214;-76
2021/12/29 08:29:10;;;;;;;47.03;34.30;;;;;;;7.26;91.41;92037.25;5063132;28;20208;-76
2021/12/29 08:31:36;;;;;;;56.90;35.67;;;;;;;7.05;92.43;92045.47;5071291;28;20234;-76
2021/12/29 08:34:02;;;;;;;52.40;39.07;;;;;;;6.97;93.17;92051.25;5072346;28;20197;-76
2021/12/29 08:36:27;;;;;;;49.17;36.33;;;;;;;6.64;94.61;92039.78;5057853;28;20244;-76
2021/12/29 08:38:53;;;;;;;54.13;35.57;;;;;;;6.52;95.63;92036.72;5067673;28;20189;-75
2021/12/29 08:41:18;;;;;;;47.03;34.20;;;;;;;6.67;96.35;92049.59;5058715;28;20248;-75
2021/12/29 08:43:46;;;;;;;52.53;34.33;;;;;;;6.74;94.65;92037.09;5066846;28;20199;-75
2021/12/29 08:46:12;;;;;;;47.43;35.67;;;;;;;7.01;93.52;92044.44;5054191;28;20229;-76
2021/12/29 08:48:40;;;;;;;49.43;34.33;;;;;;;6.88;93.05;92035.44;5070422;28;20648;-76
2021/12/29 08:51:05;;;;;;;51.17;35.53;;;;;;;6.79;94.17;92049.25;5058306;28;20218;-76
2021/12/29 08:53:31;;;;;;;49.80;35.27;;;;;;;6.68;95.41;92048.56;5072402;28;20212;-76
2021/12/29 08:55:57;;;;;;;49.63;35.60;;;;;;;6.57;96.69;92047.06;5069032;28;20237;-76
2021/12/29 08:58:26;;;;;;;53.50;35.80;;;;;;;6.60;96.45;92030.97;5064126;28;20178;-76
2021/12/29 09:00:53;;;;;;;47.70;34.47;;;;;;;6.45;96.91;92025.88;5071823;28;20217;-76
2021/12/29 09:03:19;;;;;;;52.77;36.27;;;;;;;6.64;97.12;92034.59;5072196;28;20177;-76
2021/12/29 09:05:45;;;;;;;52.83;35.43;;;;;;;6.60;97.19;92033.56;5068747;28;20233;-76
2021/12/29 09:08:10;;;;;;;56.10;39.20;;;;;;;6.58;97.64;92040.84;5055617;28;20193;-76
2021/12/29 09:10:36;;;;;;;57.70;36.87;;;;;;;6.52;98.55;92034.91;5072694;28;20240;-76
2021/12/29 09:13:03;;;;;;;59.17;38.70;;;;;;;6.66;98.64;92034.31;5055799;28;20194;-76
2021/12/29 09:15:29;;;;;;;60.77;39.50;;;;;;;6.69;98.54;92031.19;5060540;28;20229;-77
2021/12/29 09:17:55;;;;;;;49.83;35.77;;;;;;;6.90;97.65;92030.78;5070748;28;20197;-76
2021/12/29 09:20:26;;;;;;;46.13;34.07;;;;;;;6.92;96.75;92023.50;5071593;28;20185;-76
2021/12/29 09:22:53;;;;;;;45.10;32.17;;;;;;;6.92;96.55;92025.31;5071461;28;20222;-76
2021/12/29 09:25:20;;;;;;;41.77;30.67;;;;;;;6.76;96.20;91985.75;5071044;28;20209;-76
2021/12/29 09:27:49;;;;;;;47.03;32.50;;;;;;;6.93;95.68;91988.72;5067419;28;20182;-76
2021/12/29 09:30:22;;;;;;;42.27;30.63;;;;;;;7.11;95.78;92021.03;5070611;28;20182;-76
2021/12/29 09:32:48;;;;;;;43.80;31.87;;;;;;;7.16;95.76;91992.44;5045101;28;20186;-76
2021/12/29 09:35:16;;;;;;;47.03;33.80;;;;;;;7.34;95.74;91999.56;5058851;28;20196;-76
2021/12/29 09:37:41;;;;;;;51.40;36.50;;;;;;;7.46;94.93;91987.75;5066957;28;20193;-76
2021/12/29 09:40:08;;;;;;;53.23;38.40;;;;;;;7.69;94.14;91994.78;5070252;28;20224;-76
2021/12/29 09:42:34;;;;;;;60.37;39.73;;;;;;;7.84;93.47;91986.81;5068083;28;20214;-76
2021/12/29 09:45:00;;;;;;;52.20;36.93;;;;;;;7.92;93.25;91980.28;5047052;28;20197;-76
2021/12/29 09:47:28;;;;;;;55.13;37.20;;;;;;;8.04;92.21;91984.03;5053378;28;20278;-76
2021/12/29 09:49:54;;;;;;;57.70;38.00;;;;;;;8.14;91.83;91989.09;5067818;28;20189;-76
2021/12/29 09:52:20;;;;;;;56.57;36.97;;;;;;;8.13;91.91;91991.97;5066528;28;20225;-76
2021/12/29 09:54:46;;;;;;;47.57;33.60;;;;;;;8.11;91.88;91968.84;5071308;28;20193;-76
2021/12/29 09:57:11;;;;;;;53.40;35.90;;;;;;;8.38;91.80;91988.31;5071894;28;20255;-76
2021/12/29 09:59:37;;;;;;;60.27;43.73;;;;;;;8.61;91.59;91987.47;5061633;28;20253;-76
2021/12/29 10:02:04;;;;;;;45.13;33.10;;;;;;;8.74;90.68;91981.56;5069125;28;20224;-76
2021/12/29 10:04:34;;;;;;;55.13;37.37;;;;;;;8.70;90.26;91970.19;5059283;28;20193;-76
2021/12/29 10:07:10;;;;;;;42.83;30.83;;;;;;;8.86;90.16;91977.50;5068727;28;20233;-76
2021/12/29 10:09:36;;;;;;;22.47;20.17;;;;;;;8.94;88.93;91963.06;5068811;28;20189;-76
2021/12/29 10:12:08;;;;;;;18.53;16.63;;;;;;;9.15;86.52;91962.44;5057995;28;20224;-76
2021/12/29 10:14:34;;;;;;;18.87;16.87;;;;;;;9.27;86.34;91965.41;5060644;28;20184;-77
2021/12/29 10:17:00;;;;;;;13.43;12.43;;;;;;;9.25;85.43;91957.09;5065417;28;20244;-76
2021/12/29 10:19:25;;;;;;;12.43;11.53;;;;;;;9.24;85.01;91960.75;5057793;28;20202;-76
2021/12/29 10:21:51;;;;;;;14.80;13.63;;;;;;;9.16;85.06;91947.59;5054093;28;20228;-76
2021/12/29 10:24:19;;;;;;;13.53;12.57;;;;;;;9.46;83.48;91945.25;5071029;28;20204;-76
2021/12/29 10:26:47;;;;;;;21.90;19.60;;;;;;;9.44;84.32;91955.22;5048546;28;20244;-76
2021/12/29 10:29:18;;;;;;;46.23;34.33;;;;;;;9.38;88.04;91950.38;5067130;28;20195;-76
2021/12/29 10:31:48;;;;;;;51.10;34.60;;;;;;;9.01;90.45;91940.81;5052048;28;20222;-76
2021/12/29 10:34:18;;;;;;;53.80;35.03;;;;;;;9.13;90.02;91950.78;5070198;28;20194;-76
2021/12/29 10:36:50;;;;;;;47.23;34.63;;;;;;;8.99;92.33;91947.38;5051014;28;20243;-76
2021/12/29 10:39:37;;;;;;;50.03;33.53;;;;;;;8.80;91.87;91938.81;5069168;28;20459;-76
2021/12/29 10:42:02;;;;;;;44.43;32.83;;;;;;;8.51;92.91;91946.00;5065901;28;21068;-76
2021/12/29 10:44:28;;;;;;;43.83;32.23;;;;;;;7.99;96.12;91939.91;5054412;28;20198;-76
2021/12/29 10:46:56;;;;;;;44.77;32.67;;;;;;;7.96;96.48;91945.66;5051964;28;20236;-76
2021/12/29 10:49:25;;;;;;;48.40;34.17;;;;;;;8.07;95.95;91943.69;5040736;28;20185;-76
2021/12/29 10:51:51;;;;;;;53.73;42.07;;;;;;;8.34;94.26;91948.31;5067479;28;20224;-76
2021/12/29 10:54:20;;;;;;;45.77;33.53;;;;;;;8.00;94.55;91944.03;5070133;28;20206;-76
2021/12/29 10:56:56;;;;;;;47.87;33.00;;;;;;;7.79;96.60;91937.53;5063966;28;20218;-76
2021/12/29 10:59:25;;;;;;;54.90;37.03;;;;;;;7.72;97.78;91937.09;5059074;28;20252;-76
2021/12/29 11:01:52;;;;;;;45.87;35.63;;;;;;;7.85;96.29;91939.03;5066687;28;20276;-76
2021/12/29 11:04:19;;;;;;;51.87;37.60;;;;;;;7.79;96.59;91934.16;5053670;28;20190;-76
2021/12/29 11:06:47;;;;;;;60.67;41.53;;;;;;;7.84;97.06;91934.88;5053009;28;20253;-76
2021/12/29 11:09:15;;;;;;;56.37;38.80;;;;;;;8.03;95.46;91927.13;5068493;28;20194;-76
2021/12/29 11:11:46;;;;;;;64.27;40.80;;;;;;;7.52;97.72;91926.13;5063437;28;20229;-75
2021/12/29 11:14:25;;;;;;;68.17;44.40;;;;;;;7.82;96.92;91931.78;5058707;28;20218;-76
2021/12/29 11:17:19;;;;;;;71.33;43.13;;;;;;;7.77;96.29;91929.25;5069281;28;20225;-76
2021/12/29 11:19:52;;;;;;;67.10;42.37;;;;;;;8.22;95.40;91932.34;5060612;28;20261;-76
2021/12/29 11:22:22;;;;;;;67.13;41.33;;;;;;;7.95;95.76;91910.31;5062302;28;20238;-76
2021/12/29 11:24:54;;;;;;;61.07;38.83;;;;;;;8.20;93.18;91909.97;5051778;28;20205;-76
2021/12/29 11:27:21;;;;;;;45.97;33.43;;;;;;;8.13;93.96;91919.19;5065993;28;20234;-76
2021/12/29 11:29:52;;;;;;;54.80;36.13;;;;;;;8.12;94.18;91910.59;5054697;28;20200;-76